createdAt,value
2022-08-07T00:02:49.924Z,3.00
2022-08-07T00:07:18.903Z,3.43
2022-08-07T00:11:54.225Z,3.17
2022-08-07T00:16:27.891Z,3.20
2022-08-07T00:21:01.911Z,3.60
2022-08-07T00:25:28.814Z,3.10
2022-08-07T00:30:04.957Z,3.23
2022-08-07T00:34:49.267Z,2.70
2022-08-07T00:39:17.224Z,3.17
2022-08-07T00:44:00.889Z,3.13
2022-08-07T00:48:31.890Z,3.30
2022-08-07T00:52:57.688Z,3.13
2022-08-07T00:57:26.439Z,3.30
2022-08-07T01:01:52.027Z,2.83
2022-08-07T01:06:23.273Z,3.10
2022-08-07T01:10:56.276Z,3.30
2022-08-07T01:15:35.678Z,2.90
2022-08-07T01:20:17.037Z,3.67
2022-08-07T01:24:43.421Z,2.77
2022-08-07T01:29:14.553Z,2.67
2022-08-07T01:33:55.605Z,3.00
2022-08-07T01:38:24.834Z,2.70
2022-08-07T01:42:57.564Z,3.03
2022-08-07T01:48:19.394Z,3.13
2022-08-07T01:52:11.823Z,2.90
2022-08-07T01:56:52.305Z,3.50
2022-08-07T02:02:02.186Z,3.17
2022-08-07T02:06:30.911Z,3.00
2022-08-07T02:10:59.753Z,3.20
2022-08-07T02:15:27.901Z,2.87
2022-08-07T02:20:07.651Z,2.57
2022-08-07T02:24:35.662Z,2.60
2022-08-07T02:29:06.597Z,2.93
2022-08-07T02:33:57.500Z,2.70
2022-08-07T02:38:31.951Z,3.20
2022-08-07T02:42:58.810Z,2.90
2022-08-07T02:47:24.222Z,3.20
2022-08-07T02:51:52.282Z,3.50
2022-08-07T02:56:21.842Z,3.50
2022-08-07T03:00:51.864Z,3.03
2022-08-07T03:05:20.764Z,3.60
2022-08-07T03:09:52.002Z,2.90
2022-08-07T03:14:18.677Z,2.50
2022-08-07T03:18:47.951Z,3.27
2022-08-07T03:23:18.869Z,3.20
2022-08-07T03:28:08.873Z,3.23
2022-08-07T03:32:39.896Z,3.27
2022-08-07T03:37:17.973Z,3.07
2022-08-07T03:41:50.773Z,3.20
2022-08-07T03:46:18.537Z,2.90
2022-08-07T03:50:55.713Z,3.27
2022-08-07T03:55:22.850Z,2.80
2022-08-07T04:00:02.555Z,2.77
2022-08-07T04:04:32.696Z,2.80
2022-08-07T04:08:58.522Z,2.83
2022-08-07T04:13:24.345Z,2.87
2022-08-07T04:18:56.178Z,3.30
2022-08-07T04:22:41.195Z,3.60
2022-08-07T04:27:20.329Z,3.33
2022-08-07T04:32:09.997Z,3.90
2022-08-07T04:36:36.517Z,2.83
2022-08-07T04:41:02.135Z,2.50
2022-08-07T04:46:08.133Z,2.60
2022-08-07T04:51:05.578Z,3.10
2022-08-07T04:58:15.550Z,3.60
2022-08-07T05:00:47.694Z,3.17
2022-08-07T05:05:53.041Z,3.20
2022-08-07T05:10:20.122Z,3.93
2022-08-07T05:14:55.370Z,4.17
2022-08-07T05:19:44.208Z,4.07
2022-08-07T05:24:13.418Z,4.63
2022-08-07T05:28:40.552Z,4.23
2022-08-07T05:33:06.525Z,4.83
2022-08-07T05:37:37.776Z,5.30
2022-08-07T05:42:12.403Z,4.97
2022-08-07T05:46:41.116Z,5.80
2022-08-07T05:51:10.000Z,5.37
2022-08-07T05:56:03.815Z,6.23
2022-08-07T06:00:23.683Z,6.23
2022-08-07T06:04:57.421Z,5.77
2022-08-07T06:09:22.803Z,5.93
2022-08-07T06:14:13.298Z,5.20
2022-08-07T06:18:51.810Z,5.30
2022-08-07T06:23:46.529Z,5.77
2022-08-07T06:28:09.219Z,5.40
2022-08-07T06:32:39.727Z,5.60
2022-08-07T06:37:05.023Z,5.57
2022-08-07T06:42:01.094Z,4.70
2022-08-07T06:46:35.350Z,4.23
2022-08-07T06:51:08.322Z,4.60
2022-08-07T06:55:53.607Z,4.53
2022-08-07T07:00:21.653Z,3.77
2022-08-07T07:04:54.781Z,3.63
2022-08-07T07:09:31.673Z,4.10
2022-08-07T07:14:02.213Z,3.40
2022-08-07T07:18:47.856Z,3.57
2022-08-07T07:24:06.074Z,3.57
2022-08-07T07:34:30.556Z,3.00
2022-08-07T07:38:57.978Z,2.90
2022-08-07T07:43:47.481Z,2.73
2022-08-07T07:48:34.847Z,3.00
2022-08-07T07:53:02.159Z,3.10
2022-08-07T07:57:43.786Z,3.10
2022-08-07T08:02:22.691Z,3.13
2022-08-07T08:07:02.767Z,2.90
2022-08-07T08:11:59.365Z,2.80
2022-08-07T08:16:25.145Z,3.57
2022-08-07T08:20:51.897Z,3.37
2022-08-07T08:25:42.740Z,3.40
2022-08-07T08:30:17.522Z,2.60
2022-08-07T08:34:48.170Z,3.00
2022-08-07T08:39:15.565Z,2.67
2022-08-07T08:43:59.291Z,3.10
2022-08-07T08:48:42.482Z,2.60
2022-08-07T08:53:48.676Z,3.40
2022-08-07T08:58:50.550Z,2.70
2022-08-07T09:03:47.555Z,2.53
2022-08-07T09:08:49.863Z,2.30
2022-08-07T09:13:40.058Z,2.43
2022-08-07T09:18:23.519Z,2.83
2022-08-07T09:24:32.611Z,3.47
2022-08-07T09:30:01.624Z,2.23
2022-08-07T09:33:57.935Z,2.33
2022-08-07T09:38:57.752Z,2.37
2022-08-07T09:44:06.370Z,2.40
2022-08-07T09:50:01.835Z,2.60
2022-08-07T09:54:07.179Z,3.07
2022-08-07T09:58:51.174Z,2.73
2022-08-07T10:04:03.725Z,2.90
2022-08-07T10:08:49.719Z,2.87
2022-08-07T10:14:01.027Z,2.90
2022-08-07T10:19:03.656Z,2.63
2022-08-07T10:24:24.895Z,2.47
2022-08-07T10:29:45.708Z,2.70
2022-08-07T10:34:37.375Z,3.10
2022-08-07T10:40:03.271Z,2.80
2022-08-07T10:44:45.233Z,3.07
2022-08-07T10:49:49.843Z,2.90
2022-08-07T10:54:31.018Z,3.03
2022-08-07T10:59:21.534Z,3.03
2022-08-07T11:04:23.136Z,2.30
2022-08-07T11:09:11.651Z,2.73
2022-08-07T11:14:56.875Z,2.70
2022-08-07T11:18:58.212Z,2.57
2022-08-07T11:24:13.032Z,2.45
2022-08-07T11:28:55.621Z,1.90
2022-08-07T11:33:48.748Z,2.40
2022-08-07T11:38:38.803Z,2.07
2022-08-07T11:43:41.552Z,2.40
2022-08-07T11:48:36.371Z,2.10
2022-08-07T11:54:00.931Z,2.30
2022-08-07T11:58:36.223Z,2.03
2022-08-07T12:03:44.336Z,2.73
2022-08-07T12:08:25.477Z,2.13
2022-08-07T12:13:35.539Z,2.30
2022-08-07T12:18:16.102Z,1.80
2022-08-07T12:23:15.016Z,2.37
2022-08-07T12:28:08.471Z,2.23
2022-08-07T12:37:27.852Z,2.80
2022-08-07T12:42:05.780Z,2.27
2022-08-07T12:47:10.206Z,2.40
2022-08-07T12:51:51.523Z,2.77
2022-08-07T12:56:44.111Z,3.17
2022-08-07T13:01:32.123Z,2.47
2022-08-07T13:07:00.682Z,2.93
2022-08-07T13:12:03.518Z,2.80
2022-08-07T13:17:10.538Z,2.80
2022-08-07T13:21:54.975Z,2.70
2022-08-07T13:26:44.550Z,2.57
2022-08-07T13:31:22.902Z,2.90
2022-08-07T13:36:05.285Z,2.30
2022-08-07T13:40:43.339Z,2.33
2022-08-07T13:50:34.995Z,2.47
2022-08-07T13:54:22.505Z,2.57
2022-08-07T13:59:02.526Z,2.23
2022-08-07T14:04:05.430Z,2.50
2022-08-07T14:08:24.463Z,2.70
2022-08-07T14:12:57.788Z,2.80
2022-08-07T14:18:12.197Z,2.50
2022-08-07T14:22:34.365Z,2.60
2022-08-07T14:31:56.337Z,2.60
2022-08-07T14:36:24.354Z,2.87
2022-08-07T14:40:59.615Z,2.67
2022-08-07T14:45:48.717Z,2.90
2022-08-07T14:50:19.790Z,3.37
2022-08-07T14:54:49.140Z,2.77
2022-08-07T15:00:05.036Z,2.57
2022-08-07T15:04:11.344Z,2.90
2022-08-07T15:08:49.757Z,2.93
2022-08-07T15:13:25.415Z,2.77
2022-08-07T15:18:02.645Z,2.60
2022-08-07T15:22:33.396Z,2.53
2022-08-07T15:27:17.236Z,3.03
2022-08-07T15:32:00.571Z,2.30
2022-08-07T15:37:04.605Z,2.53
2022-08-07T15:41:23.551Z,2.50
2022-08-07T15:51:07.880Z,2.40
2022-08-07T15:55:53.796Z,2.73
2022-08-07T16:00:32.031Z,2.53
2022-08-07T16:05:04.335Z,2.50
2022-08-07T16:09:53.863Z,2.83
2022-08-07T16:14:50.768Z,2.67
2022-08-07T16:19:59.764Z,2.53
2022-08-07T16:24:52.739Z,2.50
2022-08-07T16:30:09.780Z,2.90
2022-08-07T16:34:57.693Z,2.93
2022-08-07T16:40:23.316Z,2.30
2022-08-07T16:45:14.982Z,2.97
2022-08-07T16:50:39.406Z,3.33
2022-08-07T16:55:50.653Z,3.60
2022-08-07T17:00:29.792Z,3.57
2022-08-07T17:05:05.019Z,3.53
2022-08-07T17:10:05.487Z,4.43
2022-08-07T17:14:54.053Z,2.80
2022-08-07T17:20:02.310Z,3.20
2022-08-07T17:24:29.587Z,2.70
2022-08-07T17:29:08.281Z,3.20
2022-08-07T17:34:10.163Z,3.17
2022-08-07T17:39:10.691Z,2.77
2022-08-07T17:44:02.321Z,3.00
2022-08-07T17:48:45.146Z,3.10
2022-08-07T17:54:01.436Z,3.27
2022-08-07T17:58:29.991Z,3.10
2022-08-07T18:03:10.940Z,2.73
2022-08-07T18:07:55.287Z,2.97
2022-08-07T18:13:10.973Z,2.70
2022-08-07T18:18:47.318Z,2.60
2022-08-07T18:22:54.319Z,2.93
2022-08-07T18:28:12.403Z,2.70
2022-08-07T18:33:33.666Z,3.00
2022-08-07T18:38:55.411Z,2.63
2022-08-07T18:43:49.047Z,3.50
2022-08-07T18:50:31.819Z,3.10
2022-08-07T18:54:27.725Z,3.33
2022-08-07T18:59:47.734Z,3.53
2022-08-07T19:04:56.212Z,3.67
2022-08-07T19:09:59.130Z,3.50
2022-08-07T19:16:03.272Z,3.90
2022-08-07T19:20:30.226Z,3.33
2022-08-07T19:24:55.925Z,3.50
2022-08-07T19:31:05.815Z,3.70
2022-08-07T19:34:14.868Z,3.70
2022-08-07T19:39:02.122Z,4.67
2022-08-07T19:43:50.123Z,4.27
2022-08-07T19:48:24.129Z,5.00
2022-08-07T19:52:58.666Z,4.67
2022-08-07T19:58:03.416Z,5.10
2022-08-07T20:02:35.015Z,4.67
2022-08-07T20:07:09.340Z,4.10
2022-08-07T20:12:22.768Z,4.93
2022-08-07T20:16:35.328Z,4.30
2022-08-07T20:21:21.189Z,4.43
2022-08-07T20:25:51.079Z,4.40
2022-08-07T20:30:22.527Z,4.20
2022-08-07T20:34:51.649Z,3.80
2022-08-07T20:40:04.113Z,4.40
2022-08-07T20:44:16.775Z,4.97
2022-08-07T20:49:53.946Z,5.80
2022-08-07T20:54:03.086Z,6.60
2022-08-07T20:58:28.583Z,5.80
2022-08-07T21:02:58.615Z,6.77
2022-08-07T21:07:26.880Z,6.50
2022-08-07T21:11:57.542Z,6.90
2022-08-07T21:16:56.930Z,6.27
2022-08-07T21:21:48.955Z,5.20
2022-08-07T21:26:59.144Z,5.30
2022-08-07T21:32:43.096Z,5.00
2022-08-07T21:36:50.329Z,5.70
2022-08-07T21:41:38.197Z,5.20
2022-08-07T21:46:25.222Z,4.97
2022-08-07T21:51:25.366Z,4.73
2022-08-07T21:56:16.896Z,4.80
2022-08-07T22:01:19.965Z,4.73
2022-08-07T22:06:30.026Z,4.70
2022-08-07T22:11:03.878Z,4.40
2022-08-07T22:16:45.678Z,4.30
2022-08-07T22:20:51.334Z,4.77
2022-08-07T22:25:36.265Z,4.17
2022-08-07T22:30:21.058Z,4.60
2022-08-07T22:35:00.895Z,4.63
2022-08-07T22:39:52.750Z,4.30
2022-08-07T22:44:25.103Z,4.93
2022-08-07T22:49:39.595Z,4.43
2022-08-07T22:54:48.965Z,4.40
2022-08-07T22:59:49.722Z,5.00
2022-08-07T23:06:10.127Z,4.67
2022-08-07T23:10:36.329Z,4.00
2022-08-07T23:15:21.675Z,4.80
2022-08-07T23:20:51.157Z,4.80
2022-08-07T23:26:05.516Z,4.37
2022-08-07T23:32:49.479Z,4.30
2022-08-07T23:36:29.109Z,4.10
2022-08-07T23:42:05.594Z,4.50
2022-08-07T23:47:09.409Z,4.30
2022-08-07T23:53:02.036Z,4.13
2022-08-07T23:56:53.450Z,4.30
